createdAt,value
2023-01-11T00:17:05.207Z,98486.72
2023-01-11T00:37:07.665Z,98478.50
2023-01-11T00:57:10.113Z,98479.16
2023-01-11T01:17:12.796Z,98508.88
2023-01-11T01:37:16.986Z,98499.37
2023-01-11T01:57:19.653Z,98507.94
2023-01-11T02:17:22.835Z,98491.59
2023-01-11T02:37:25.387Z,98483.13
2023-01-11T02:57:27.839Z,98461.69
2023-01-11T03:17:30.283Z,98469.09
2023-01-11T03:37:32.696Z,98481.00
2023-01-11T03:57:35.299Z,98473.28
2023-01-11T04:17:37.998Z,98465.59
2023-01-11T04:37:40.386Z,98465.19
2023-01-11T04:57:43.037Z,98461.69
2023-01-11T05:17:45.715Z,98447.38
2023-01-11T05:37:48.135Z,98426.00
2023-01-11T05:57:52.223Z,98417.03
2023-01-11T06:17:54.713Z,98405.91
2023-01-11T06:37:57.181Z,98405.25
2023-01-11T06:57:59.819Z,98391.72
2023-01-11T07:18:02.590Z,98405.22
2023-01-11T07:38:08.802Z,98407.56
2023-01-11T07:58:11.293Z,98381.09
2023-01-11T08:18:14.001Z,98370.69
2023-01-11T08:38:16.447Z,98362.75
2023-01-11T08:58:20.691Z,98373.16
2023-01-11T09:18:24.557Z,98366.66
2023-01-11T09:38:30.774Z,98353.19
2023-01-11T09:58:33.887Z,98354.72
2023-01-11T10:18:58.891Z,98335.78
2023-01-11T10:39:12.185Z,98326.00
2023-01-11T10:59:16.780Z,98275.62
2023-01-11T11:19:19.519Z,98250.28
2023-01-11T11:39:22.083Z,98231.75
2023-01-11T11:59:24.785Z,98201.50
2023-01-11T12:19:27.679Z,98188.97
2023-01-11T12:39:30.123Z,98177.03
2023-01-11T12:59:32.626Z,98163.03
2023-01-11T13:19:38.554Z,98115.81
2023-01-11T13:39:40.989Z,98101.66
2023-01-11T13:59:45.746Z,98082.88
2023-01-11T14:19:48.358Z,98065.69
2023-01-11T14:39:50.897Z,98073.19
2023-01-11T14:59:53.563Z,98081.31
2023-01-11T15:19:56.323Z,98048.59
2023-01-11T15:39:59.115Z,98055.78
2023-01-11T16:00:01.894Z,98019.59
2023-01-11T16:20:05.483Z,98010.03
2023-01-11T16:40:07.930Z,98003.09
2023-01-11T17:00:10.595Z,97988.13
2023-01-11T17:20:13.051Z,97998.88
2023-01-11T17:40:15.498Z,97991.91
2023-01-11T18:00:18.124Z,98004.91
2023-01-11T18:20:21.489Z,97979.94
2023-01-11T18:40:24.373Z,97975.88
2023-01-11T19:00:26.922Z,97983.47
2023-01-11T19:40:31.960Z,98000.94
2023-01-11T20:00:34.810Z,97991.13
2023-01-11T20:20:42.427Z,98004.37
2023-01-11T20:40:44.880Z,98005.94
2023-01-11T21:00:47.519Z,98027.06
2023-01-11T21:20:50.195Z,98029.72
2023-01-11T21:40:52.615Z,98013.47
2023-01-11T22:00:55.319Z,98048.88
2023-01-11T22:20:57.826Z,98026.13
2023-01-11T22:41:00.261Z,98027.69
2023-01-11T23:01:03.015Z,98050.84
2023-01-11T23:21:05.668Z,98084.50
2023-01-11T23:41:26.998Z,98086.88
